sensor_id;sensor_type;location;lat;lon;timestamp;pressure;altitude;pressure_sealevel;temperature;humidity
24666;BME280;29726;53.532;-1.478;2023-02-12T00:01:59;102664.22;;;14.65;100.00
24666;BME280;29726;53.532;-1.478;2023-02-12T00:04:43;102660.06;;;14.57;100.00
24666;BME280;29726;53.532;-1.478;2023-02-12T00:07:29;102679.88;;;14.66;100.00
24666;BME280;29726;53.532;-1.478;2023-02-12T00:10:14;102667.13;;;14.62;100.00
24666;BME280;29726;53.532;-1.478;2023-02-12T00:12:58;102662.31;;;14.62;100.00
24666;BME280;29726;53.532;-1.478;2023-02-12T00:15:42;102670.31;;;14.64;100.00
24666;BME280;29726;53.532;-1.478;2023-02-12T00:18:26;102646.06;;;14.54;100.00
24666;BME280;29726;53.532;-1.478;2023-02-12T00:21:11;102652.03;;;14.56;100.00
24666;BME280;29726;53.532;-1.478;2023-02-12T00:23:56;102649.16;;;14.59;100.00
24666;BME280;29726;53.532;-1.478;2023-02-12T00:26:41;102660.72;;;14.61;100.00
24666;BME280;29726;53.532;-1.478;2023-02-12T00:29:25;102651.69;;;14.54;100.00
24666;BME280;29726;53.532;-1.478;2023-02-12T00:32:09;102659.59;;;14.59;100.00
24666;BME280;29726;53.532;-1.478;2023-02-12T00:34:53;102638.28;;;14.45;100.00
24666;BME280;29726;53.532;-1.478;2023-02-12T00:37:37;102659.59;;;14.59;100.00
24666;BME280;29726;53.532;-1.478;2023-02-12T00:40:21;102634.56;;;14.48;100.00
24666;BME280;29726;53.532;-1.478;2023-02-12T00:43:05;102646.88;;;14.54;100.00
24666;BME280;29726;53.532;-1.478;2023-02-12T00:45:49;102651.28;;;14.55;100.00
24666;BME280;29726;53.532;-1.478;2023-02-12T00:48:33;102642.03;;;14.55;100.00
24666;BME280;29726;53.532;-1.478;2023-02-12T00:51:18;102642.84;;;14.55;100.00
24666;BME280;29726;53.532;-1.478;2023-02-12T00:54:02;102639.69;;;14.53;100.00
24666;BME280;29726;53.532;-1.478;2023-02-12T00:56:46;102631.34;;;14.50;100.00
24666;BME280;29726;53.532;-1.478;2023-02-12T00:59:30;102632.03;;;14.54;100.00
24666;BME280;29726;53.532;-1.478;2023-02-12T01:02:14;102635.72;;;14.51;100.00
24666;BME280;29726;53.532;-1.478;2023-02-12T01:04:58;102633.34;;;14.49;100.00
24666;BME280;29726;53.532;-1.478;2023-02-12T01:07:41;102623.44;;;14.45;100.00
24666;BME280;29726;53.532;-1.478;2023-02-12T01:10:26;102626.16;;;14.48;100.00
24666;BME280;29726;53.532;-1.478;2023-02-12T01:13:13;102632.09;;;14.50;100.00
24666;BME280;29726;53.532;-1.478;2023-02-12T01:16:14;102645.38;;;14.50;100.00
24666;BME280;29726;53.532;-1.478;2023-02-12T01:18:58;102638.63;;;14.47;100.00
24666;BME280;29726;53.532;-1.478;2023-02-12T01:21:42;102627.50;;;14.44;100.00
24666;BME280;29726;53.532;-1.478;2023-02-12T01:24:26;102635.13;;;14.43;100.00
24666;BME280;29726;53.532;-1.478;2023-02-12T01:27:09;102636.28;;;14.46;100.00
24666;BME280;29726;53.532;-1.478;2023-02-12T01:29:53;102636.28;;;14.46;100.00
24666;BME280;29726;53.532;-1.478;2023-02-12T01:32:37;102616.41;;;14.37;100.00
24666;BME280;29726;53.532;-1.478;2023-02-12T01:35:21;102621.97;;;14.40;100.00
24666;BME280;29726;53.532;-1.478;2023-02-12T01:38:05;102625.09;;;14.42;100.00
24666;BME280;29726;53.532;-1.478;2023-02-12T01:40:49;102628.38;;;14.41;100.00
24666;BME280;29726;53.532;-1.478;2023-02-12T01:43:35;102623.28;;;14.36;100.00
24666;BME280;29726;53.532;-1.478;2023-02-12T01:46:19;102620.03;;;14.37;100.00
24666;BME280;29726;53.532;-1.478;2023-02-12T01:49:07;102634.34;;;14.43;100.00
24666;BME280;29726;53.532;-1.478;2023-02-12T01:51:56;102640.06;;;14.39;100.00
24666;BME280;29726;53.532;-1.478;2023-02-12T01:54:42;102631.81;;;14.32;100.00
24666;BME280;29726;53.532;-1.478;2023-02-12T01:57:30;102630.94;;;14.35;100.00
24666;BME280;29726;53.532;-1.478;2023-02-12T02:00:21;102637.66;;;14.38;100.00
24666;BME280;29726;53.532;-1.478;2023-02-12T02:03:06;102642.16;;;14.35;100.00
24666;BME280;29726;53.532;-1.478;2023-02-12T02:05:58;102640.47;;;14.38;100.00
24666;BME280;29726;53.532;-1.478;2023-02-12T02:08:45;102624.69;;;14.28;100.00
24666;BME280;29726;53.532;-1.478;2023-02-12T02:11:30;102632.25;;;14.31;100.00
24666;BME280;29726;53.532;-1.478;2023-02-12T02:14:32;102635.31;;;14.36;100.00
24666;BME280;29726;53.532;-1.478;2023-02-12T02:39:12;102634.03;;;14.25;100.00
24666;BME280;29726;53.532;-1.478;2023-02-12T02:42:14;102640.78;;;14.27;100.00
24666;BME280;29726;53.532;-1.478;2023-02-12T02:45:06;102635.59;;;14.26;100.00
24666;BME280;29726;53.532;-1.478;2023-02-12T02:47:58;102623.31;;;14.20;100.00
24666;BME280;29726;53.532;-1.478;2023-02-12T02:50:48;102636.38;;;14.26;100.00
24666;BME280;29726;53.532;-1.478;2023-02-12T02:53:42;102620.16;;;14.18;100.00
24666;BME280;29726;53.532;-1.478;2023-02-12T02:56:29;102612.97;;;14.17;100.00
24666;BME280;29726;53.532;-1.478;2023-02-12T02:59:39;102626.91;;;14.20;100.00
24666;BME280;29726;53.532;-1.478;2023-02-12T03:02:30;102619.00;;;14.15;100.00
24666;BME280;29726;53.532;-1.478;2023-02-12T03:05:20;102640.88;;;14.24;100.00
24666;BME280;29726;53.532;-1.478;2023-02-12T03:08:14;102638.50;;;14.22;100.00
24666;BME280;29726;53.532;-1.478;2023-02-12T03:11:07;102641.75;;;14.21;100.00
24666;BME280;29726;53.532;-1.478;2023-02-12T03:14:15;102635.44;;;14.17;100.00
24666;BME280;29726;53.532;-1.478;2023-02-12T03:17:22;102636.56;;;14.19;100.00
24666;BME280;29726;53.532;-1.478;2023-02-12T03:20:22;102635.78;;;14.19;100.00
24666;BME280;29726;53.532;-1.478;2023-02-12T03:23:31;102623.81;;;14.15;100.00
24666;BME280;29726;53.532;-1.478;2023-02-12T03:26:25;102629.53;;;14.11;100.00
24666;BME280;29726;53.532;-1.478;2023-02-12T03:29:10;102626.25;;;14.13;100.00
24666;BME280;29726;53.532;-1.478;2023-02-12T03:35:09;102632.22;;;14.15;100.00
24666;BME280;29726;53.532;-1.478;2023-02-12T03:38:30;102629.41;;;14.15;100.00
24666;BME280;29726;53.532;-1.478;2023-02-12T03:41:36;102634.69;;;14.13;100.00
24666;BME280;29726;53.532;-1.478;2023-02-12T03:44:38;102619.59;;;14.07;100.00
24666;BME280;29726;53.532;-1.478;2023-02-12T03:47:46;102620.28;;;14.11;100.00
24666;BME280;29726;53.532;-1.478;2023-02-12T03:50:43;102632.75;;;14.10;100.00
24666;BME280;29726;53.532;-1.478;2023-02-12T03:53:30;102600.41;;;13.89;100.00
24666;BME280;29726;53.532;-1.478;2023-02-12T03:56:19;102633.22;;;14.08;100.00
24666;BME280;29726;53.532;-1.478;2023-02-12T03:59:05;102634.47;;;14.07;100.00
24666;BME280;29726;53.532;-1.478;2023-02-12T04:01:51;102636.91;;;14.05;100.00
24666;BME280;29726;53.532;-1.478;2023-02-12T04:04:36;102638.91;;;14.05;100.00
24666;BME280;29726;53.532;-1.478;2023-02-12T04:07:20;102624.59;;;13.99;100.00
24666;BME280;29726;53.532;-1.478;2023-02-12T04:10:05;102627.41;;;13.99;100.00
24666;BME280;29726;53.532;-1.478;2023-02-12T04:13:10;102641.31;;;14.06;100.00
24666;BME280;29726;53.532;-1.478;2023-02-12T04:16:06;102642.53;;;14.05;100.00
24666;BME280;29726;53.532;-1.478;2023-02-12T04:18:56;102642.59;;;14.02;100.00
24666;BME280;29726;53.532;-1.478;2023-02-12T04:22:17;102646.19;;;14.02;100.00
24666;BME280;29726;53.532;-1.478;2023-02-12T04:28:26;102645.84;;;14.00;100.00
24666;BME280;29726;53.532;-1.478;2023-02-12T04:37:37;102647.53;;;13.98;100.00
24666;BME280;29726;53.532;-1.478;2023-02-12T04:40:22;102645.94;;;13.97;100.00
24666;BME280;29726;53.532;-1.478;2023-02-12T04:43:07;102647.25;;;13.92;100.00
24666;BME280;29726;53.532;-1.478;2023-02-12T04:45:51;102645.69;;;13.91;100.00
24666;BME280;29726;53.532;-1.478;2023-02-12T04:48:49;102640.41;;;13.93;100.00
24666;BME280;29726;53.532;-1.478;2023-02-12T04:51:35;102611.56;;;13.77;100.00
24666;BME280;29726;53.532;-1.478;2023-02-12T04:54:20;102647.59;;;13.94;100.00
24666;BME280;29726;53.532;-1.478;2023-02-12T04:57:04;102645.34;;;13.89;100.00
24666;BME280;29726;53.532;-1.478;2023-02-12T04:59:48;102643.22;;;13.93;100.00
24666;BME280;29726;53.532;-1.478;2023-02-12T05:02:33;102648.06;;;13.93;100.00
24666;BME280;29726;53.532;-1.478;2023-02-12T05:05:17;102641.03;;;13.85;100.00
24666;BME280;29726;53.532;-1.478;2023-02-12T05:08:01;102636.97;;;13.86;100.00
24666;BME280;29726;53.532;-1.478;2023-02-12T05:10:45;102634.63;;;13.84;100.00
24666;BME280;29726;53.532;-1.478;2023-02-12T05:13:29;102653.75;;;13.89;100.00
24666;BME280;29726;53.532;-1.478;2023-02-12T05:16:14;102644.09;;;13.90;100.00
24666;BME280;29726;53.532;-1.478;2023-02-12T05:18:58;102637.09;;;13.82;100.00
24666;BME280;29726;53.532;-1.478;2023-02-12T05:21:42;102648.13;;;13.89;100.00
24666;BME280;29726;53.532;-1.478;2023-02-12T05:24:26;102637.44;;;13.84;100.00
24666;BME280;29726;53.532;-1.478;2023-02-12T05:27:10;102636.97;;;13.86;100.00
24666;BME280;29726;53.532;-1.478;2023-02-12T05:29:54;102637.78;;;13.86;100.00
24666;BME280;29726;53.532;-1.478;2023-02-12T05:32:39;102640.13;;;13.88;100.00
24666;BME280;29726;53.532;-1.478;2023-02-12T05:35:23;102631.81;;;13.84;100.00
24666;BME280;29726;53.532;-1.478;2023-02-12T05:38:07;102637.78;;;13.86;100.00
24666;BME280;29726;53.532;-1.478;2023-02-12T05:40:51;102645.41;;;13.86;100.00
24666;BME280;29726;53.532;-1.478;2023-02-12T05:43:35;102623.56;;;13.77;100.00
24666;BME280;29726;53.532;-1.478;2023-02-12T05:46:20;102639.44;;;13.84;100.00
24666;BME280;29726;53.532;-1.478;2023-02-12T05:49:04;102630.75;;;13.78;100.00
24666;BME280;29726;53.532;-1.478;2023-02-12T05:51:48;102633.47;;;13.82;100.00
24666;BME280;29726;53.532;-1.478;2023-02-12T05:54:32;102635.50;;;13.81;100.00
24666;BME280;29726;53.532;-1.478;2023-02-12T05:57:16;102624.34;;;13.78;100.00
24666;BME280;29726;53.532;-1.478;2023-02-12T06:00:00;102629.63;;;13.76;100.00
24666;BME280;29726;53.532;-1.478;2023-02-12T06:02:44;102630.50;;;13.73;100.00
24666;BME280;29726;53.532;-1.478;2023-02-12T06:05:28;102593.63;;;13.55;100.00
24666;BME280;29726;53.532;-1.478;2023-02-12T06:08:12;102631.53;;;13.79;100.00
24666;BME280;29726;53.532;-1.478;2023-02-12T06:10:59;102618.75;;;13.78;100.00
24666;BME280;29726;53.532;-1.478;2023-02-12T06:13:44;102627.16;;;13.78;100.00
24666;BME280;29726;53.532;-1.478;2023-02-12T06:16:28;102625.66;;;13.73;100.00
24666;BME280;29726;53.532;-1.478;2023-02-12T06:19:12;102609.28;;;13.72;100.00
24666;BME280;29726;53.532;-1.478;2023-02-12T06:21:56;102609.41;;;13.65;100.00
24666;BME280;29726;53.532;-1.478;2023-02-12T06:24:40;102609.28;;;13.72;100.00
24666;BME280;29726;53.532;-1.478;2023-02-12T06:27:24;102598.53;;;13.67;100.00
24666;BME280;29726;53.532;-1.478;2023-02-12T06:30:08;102614.09;;;13.71;100.00
24666;BME280;29726;53.532;-1.478;2023-02-12T06:32:53;102602.16;;;13.67;100.00
24666;BME280;29726;53.532;-1.478;2023-02-12T06:35:37;102604.25;;;13.63;100.00
24666;BME280;29726;53.532;-1.478;2023-02-12T06:38:21;102603.03;;;13.64;100.00
24666;BME280;29726;53.532;-1.478;2023-02-12T06:41:06;102615.38;;;13.67;100.00
24666;BME280;29726;53.532;-1.478;2023-02-12T06:43:50;102618.28;;;13.63;100.00
24666;BME280;29726;53.532;-1.478;2023-02-12T06:46:34;102627.75;;;13.69;100.00
24666;BME280;29726;53.532;-1.478;2023-02-12T06:49:18;102624.16;;;13.69;100.00
24666;BME280;29726;53.532;-1.478;2023-02-12T06:52:02;102622.22;;;13.66;100.00
24666;BME280;29726;53.532;-1.478;2023-02-12T06:54:46;102617.13;;;13.61;100.00
24666;BME280;29726;53.532;-1.478;2023-02-12T06:57:30;102628.28;;;13.64;100.00
24666;BME280;29726;53.532;-1.478;2023-02-12T07:00:14;102633.91;;;13.64;100.00
24666;BME280;29726;53.532;-1.478;2023-02-12T07:02:59;102631.09;;;13.64;100.00
24666;BME280;29726;53.532;-1.478;2023-02-12T07:05:42;102624.06;;;13.56;100.00
24666;BME280;29726;53.532;-1.478;2023-02-12T07:08:26;102636.72;;;13.64;100.00
24666;BME280;29726;53.532;-1.478;2023-02-12T07:11:11;102644.44;;;13.60;100.00
24666;BME280;29726;53.532;-1.478;2023-02-12T07:13:56;102648.72;;;13.65;100.00
24666;BME280;29726;53.532;-1.478;2023-02-12T07:16:40;102652.34;;;13.65;100.00
24666;BME280;29726;53.532;-1.478;2023-02-12T07:19:24;102643.22;;;13.61;100.00
24666;BME280;29726;53.532;-1.478;2023-02-12T07:22:09;102640.06;;;13.59;100.00
24666;BME280;29726;53.532;-1.478;2023-02-12T07:24:52;102646.78;;;13.62;100.00
24666;BME280;29726;53.532;-1.478;2023-02-12T07:27:37;102638.47;;;13.58;100.00
24666;BME280;29726;53.532;-1.478;2023-02-12T07:30:21;102641.63;;;13.60;100.00
24666;BME280;29726;53.532;-1.478;2023-02-12T07:33:05;102634.44;;;13.59;100.00
24666;BME280;29726;53.532;-1.478;2023-02-12T07:35:49;102638.91;;;13.57;100.00
24666;BME280;29726;53.532;-1.478;2023-02-12T07:38:33;102642.06;;;13.59;100.00
24666;BME280;29726;53.532;-1.478;2023-02-12T07:41:27;102638.47;;;13.58;100.00
24666;BME280;29726;53.532;-1.478;2023-02-12T07:44:11;102650.47;;;13.59;100.00
24666;BME280;29726;53.532;-1.478;2023-02-12T07:46:55;102641.78;;;13.53;100.00
24666;BME280;29726;53.532;-1.478;2023-02-12T07:49:39;102636.16;;;13.53;100.00
24666;BME280;29726;53.532;-1.478;2023-02-12T07:52:23;102645.72;;;13.56;100.00
24666;BME280;29726;53.532;-1.478;2023-02-12T07:55:07;102647.38;;;13.53;100.00
24666;BME280;29726;53.532;-1.478;2023-02-12T07:57:51;102651.34;;;13.56;100.00
24666;BME280;29726;53.532;-1.478;2023-02-12T08:00:35;102645.72;;;13.56;100.00
24666;BME280;29726;53.532;-1.478;2023-02-12T08:03:19;102651.00;;;13.54;100.00
24666;BME280;29726;53.532;-1.478;2023-02-12T08:06:15;102617.88;;;13.29;100.00
24666;BME280;29726;53.532;-1.478;2023-02-12T08:09:02;102658.59;;;13.53;100.00
24666;BME280;29726;53.532;-1.478;2023-02-12T08:11:46;102661.06;;;13.51;100.00
24666;BME280;29726;53.532;-1.478;2023-02-12T08:14:30;102675.81;;;13.55;100.00
24666;BME280;29726;53.532;-1.478;2023-02-12T08:17:14;102669.84;;;13.53;100.00
24666;BME280;29726;53.532;-1.478;2023-02-12T08:19:58;102667.38;;;13.55;100.00
24666;BME280;29726;53.532;-1.478;2023-02-12T08:22:42;102673.88;;;13.52;100.00
24666;BME280;29726;53.532;-1.478;2023-02-12T08:25:26;102669.06;;;13.53;100.00
24666;BME280;29726;53.532;-1.478;2023-02-12T08:28:10;102673.44;;;13.54;100.00
24666;BME280;29726;53.532;-1.478;2023-02-12T08:30:59;102658.34;;;13.48;100.00
24666;BME280;29726;53.532;-1.478;2023-02-12T08:33:47;102661.00;;;13.55;100.00
24666;BME280;29726;53.532;-1.478;2023-02-12T08:36:37;102629.56;;;13.28;100.00
24666;BME280;29726;53.532;-1.478;2023-02-12T08:39:24;102669.41;;;13.55;100.00
24666;BME280;29726;53.532;-1.478;2023-02-12T08:42:09;102657.50;;;13.51;100.00
24666;BME280;29726;53.532;-1.478;2023-02-12T08:44:53;102663.50;;;13.49;100.00
24666;BME280;29726;53.532;-1.478;2023-02-12T08:47:37;102623.84;;;13.31;100.00
24666;BME280;29726;53.532;-1.478;2023-02-12T08:50:21;102659.47;;;13.50;100.00
24666;BME280;29726;53.532;-1.478;2023-02-12T08:53:05;102664.22;;;13.53;100.00
24666;BME280;29726;53.532;-1.478;2023-02-12T08:55:50;102666.69;;;13.51;100.00
24666;BME280;29726;53.532;-1.478;2023-02-12T08:58:35;102666.59;;;13.55;100.00
24666;BME280;29726;53.532;-1.478;2023-02-12T09:01:21;102656.16;;;13.55;100.00
24666;BME280;29726;53.532;-1.478;2023-02-12T09:04:08;102654.16;;;13.56;100.00
24666;BME280;29726;53.532;-1.478;2023-02-12T09:06:55;102637.97;;;13.44;100.00
24666;BME280;29726;53.532;-1.478;2023-02-12T09:09:39;102645.81;;;13.52;100.00
24666;BME280;29726;53.532;-1.478;2023-02-12T09:12:23;102647.03;;;13.51;100.00
24666;BME280;29726;53.532;-1.478;2023-02-12T09:15:07;102652.56;;;13.55;100.00
24666;BME280;29726;53.532;-1.478;2023-02-12T09:17:51;102642.56;;;13.54;100.00
24666;BME280;29726;53.532;-1.478;2023-02-12T09:20:37;102658.53;;;13.57;100.00
24666;BME280;29726;53.532;-1.478;2023-02-12T09:23:22;102658.97;;;13.55;100.00
24666;BME280;29726;53.532;-1.478;2023-02-12T09:26:09;102639.78;;;13.54;100.00
24666;BME280;29726;53.532;-1.478;2023-02-12T09:28:54;102641.06;;;13.49;100.00
24666;BME280;29726;53.532;-1.478;2023-02-12T09:31:38;102658.13;;;13.58;100.00
24666;BME280;29726;53.532;-1.478;2023-02-12T09:34:22;102631.41;;;13.50;100.00
24666;BME280;29726;53.532;-1.478;2023-02-12T09:37:06;102647.66;;;13.59;100.00
24666;BME280;29726;53.532;-1.478;2023-02-12T09:39:50;102638.38;;;13.46;100.00
24666;BME280;29726;53.532;-1.478;2023-02-12T09:42:51;102656.00;;;13.62;100.00
24666;BME280;29726;53.532;-1.478;2023-02-12T09:45:46;102653.22;;;13.62;100.00
24666;BME280;29726;53.532;-1.478;2023-02-12T09:51:30;102649.94;;;13.64;100.00
24666;BME280;29726;53.532;-1.478;2023-02-12T09:54:17;102638.03;;;13.60;100.00
24666;BME280;29726;53.532;-1.478;2023-02-12T09:57:06;102631.19;;;13.61;100.00
24666;BME280;29726;53.532;-1.478;2023-02-12T10:00:03;102630.75;;;13.62;100.00
24666;BME280;29726;53.532;-1.478;2023-02-12T10:02:51;102635.03;;;13.67;100.00
24666;BME280;29726;53.532;-1.478;2023-02-12T10:05:47;102645.03;;;13.68;100.00
24666;BME280;29726;53.532;-1.478;2023-02-12T10:08:47;102643.38;;;13.70;100.00
24666;BME280;29726;53.532;-1.478;2023-02-12T10:15:07;102635.75;;;13.71;100.00
24666;BME280;29726;53.532;-1.478;2023-02-12T10:21:23;102634.88;;;13.74;100.00
24666;BME280;29726;53.532;-1.478;2023-02-12T10:25:05;102630.84;;;13.75;100.00
24666;BME280;29726;53.532;-1.478;2023-02-12T10:27:58;102619.06;;;13.64;100.00
24666;BME280;29726;53.532;-1.478;2023-02-12T10:33:31;102631.63;;;13.75;100.00
24666;BME280;29726;53.532;-1.478;2023-02-12T10:36:36;102647.16;;;13.80;100.00
24666;BME280;29726;53.532;-1.478;2023-02-12T10:39:23;102644.72;;;13.82;100.00
24666;BME280;29726;53.532;-1.478;2023-02-12T10:42:24;102631.47;;;13.82;100.00
24666;BME280;29726;53.532;-1.478;2023-02-12T10:45:20;102638.66;;;13.83;100.00
24666;BME280;29726;53.532;-1.478;2023-02-12T10:48:21;102647.44;;;13.85;100.00
24666;BME280;29726;53.532;-1.478;2023-02-12T10:53:50;102644.63;;;13.85;100.00
24666;BME280;29726;53.532;-1.478;2023-02-12T10:56:35;102651.38;;;13.88;100.00
24666;BME280;29726;53.532;-1.478;2023-02-12T10:59:22;102652.88;;;13.92;100.00
24666;BME280;29726;53.532;-1.478;2023-02-12T11:02:29;102651.22;;;13.95;100.00
24666;BME280;29726;53.532;-1.478;2023-02-12T11:05:22;102664.81;;;13.96;100.00
24666;BME280;29726;53.532;-1.478;2023-02-12T11:08:39;102668.06;;;13.95;100.00
24666;BME280;29726;53.532;-1.478;2023-02-12T11:11:30;102668.66;;;14.02;100.00
24666;BME280;29726;53.532;-1.478;2023-02-12T11:14:20;102666.22;;;14.04;100.00
24666;BME280;29726;53.532;-1.478;2023-02-12T11:17:04;102646.19;;;14.02;100.00
24666;BME280;29726;53.532;-1.478;2023-02-12T11:20:22;102653.31;;;14.07;100.00
24666;BME280;29726;53.532;-1.478;2023-02-12T11:23:31;102649.63;;;14.10;100.00
24666;BME280;29726;53.532;-1.478;2023-02-12T11:29:20;102633.72;;;14.03;100.00
24666;BME280;29726;53.532;-1.478;2023-02-12T11:32:06;102648.31;;;14.14;100.00
24666;BME280;29726;53.532;-1.478;2023-02-12T11:35:15;102648.25;;;14.18;100.00
24666;BME280;29726;53.532;-1.478;2023-02-12T11:38:02;102638.69;;;14.15;100.00
24666;BME280;29726;53.532;-1.478;2023-02-12T11:40:46;102632.97;;;14.19;100.00
24666;BME280;29726;53.532;-1.478;2023-02-12T11:43:33;102635.88;;;14.15;100.00
24666;BME280;29726;53.532;-1.478;2023-02-12T11:46:26;102645.34;;;14.21;100.00
24666;BME280;29726;53.532;-1.478;2023-02-12T11:49:20;102646.50;;;14.24;100.00
24666;BME280;29726;53.532;-1.478;2023-02-12T11:52:06;102638.84;;;14.24;100.00
24666;BME280;29726;53.532;-1.478;2023-02-12T11:55:04;102649.66;;;14.26;100.00
24666;BME280;29726;53.532;-1.478;2023-02-12T11:57:52;102644.44;;;14.24;100.00
24666;BME280;29726;53.532;-1.478;2023-02-12T12:00:48;102645.59;;;14.27;100.00
24666;BME280;29726;53.532;-1.478;2023-02-12T12:04:07;102651.91;;;14.31;100.00
24666;BME280;29726;53.532;-1.478;2023-02-12T12:06:59;102647.09;;;14.31;100.00
24666;BME280;29726;53.532;-1.478;2023-02-12T12:09:55;102635.41;;;14.33;100.00
24666;BME280;29726;53.532;-1.478;2023-02-12T12:12:54;102639.03;;;14.33;100.00
24666;BME280;29726;53.532;-1.478;2023-02-12T12:15:46;102623.94;;;14.27;100.00
24666;BME280;29726;53.532;-1.478;2023-02-12T12:18:59;102637.78;;;14.34;100.00
24666;BME280;29726;53.532;-1.478;2023-02-12T12:22:10;102636.91;;;14.37;100.00
24666;BME280;29726;53.532;-1.478;2023-02-12T12:25:07;102615.38;;;14.31;100.00
24666;BME280;29726;53.532;-1.478;2023-02-12T12:28:09;102626.00;;;14.39;100.00
24666;BME280;29726;53.532;-1.478;2023-02-12T12:31:09;102618.13;;;14.34;100.00
24666;BME280;29726;53.532;-1.478;2023-02-12T12:34:08;102628.38;;;14.41;100.00
24666;BME280;29726;53.532;-1.478;2023-02-12T12:43:16;102623.53;;;14.41;100.00
24666;BME280;29726;53.532;-1.478;2023-02-12T13:14:35;102596.28;;;14.54;100.00
24666;BME280;29726;53.532;-1.478;2023-02-12T13:17:35;102600.66;;;14.55;100.00
24666;BME280;29726;53.532;-1.478;2023-02-12T13:20:36;102602.25;;;14.56;100.00
24666;BME280;29726;53.532;-1.478;2023-02-12T13:26:25;102588.06;;;14.60;100.00
24666;BME280;29726;53.532;-1.478;2023-02-12T13:29:22;102590.88;;;14.60;100.00
24666;BME280;29726;53.532;-1.478;2023-02-12T13:32:22;102586.84;;;14.61;100.00
24666;BME280;29726;53.532;-1.478;2023-02-12T13:35:15;102581.69;;;14.59;100.00
24666;BME280;29726;53.532;-1.478;2023-02-12T13:38:01;102585.97;;;14.64;100.00
24666;BME280;29726;53.532;-1.478;2023-02-12T13:40:47;102569.63;;;14.59;100.00
24666;BME280;29726;53.532;-1.478;2023-02-12T13:43:43;102581.13;;;14.64;100.00
24666;BME280;29726;53.532;-1.478;2023-02-12T13:53:33;102572.69;;;14.64;100.00
24666;BME280;29726;53.532;-1.478;2023-02-12T13:58:50;102558.63;;;14.64;100.00
24666;BME280;29726;53.532;-1.478;2023-02-12T14:01:48;102570.47;;;14.72;100.00
24666;BME280;29726;53.532;-1.478;2023-02-12T14:04:39;102564.38;;;14.73;100.00
24666;BME280;29726;53.532;-1.478;2023-02-12T14:07:53;102557.19;;;14.72;100.00
24666;BME280;29726;53.532;-1.478;2023-02-12T14:10:40;102535.38;;;14.64;100.00
24666;BME280;29726;53.532;-1.478;2023-02-12T14:13:24;102543.13;;;14.72;100.00
24666;BME280;29726;53.532;-1.478;2023-02-12T14:16:39;102511.63;;;14.52;100.00
24666;BME280;29726;53.532;-1.478;2023-02-12T14:19:55;102550.22;;;14.77;100.00
24666;BME280;29726;53.532;-1.478;2023-02-12T14:25:38;102545.41;;;14.77;100.00
24666;BME280;29726;53.532;-1.478;2023-02-12T14:28:33;102542.13;;;14.79;100.00
24666;BME280;29726;53.532;-1.478;2023-02-12T14:37:16;102530.22;;;14.75;100.00
24666;BME280;29726;53.532;-1.478;2023-02-12T14:43:34;102532.78;;;14.82;100.00
24666;BME280;29726;53.532;-1.478;2023-02-12T14:46:42;102537.19;;;14.83;100.00
24666;BME280;29726;53.532;-1.478;2023-02-12T14:49:47;102518.41;;;14.80;100.00
24666;BME280;29726;53.532;-1.478;2023-02-12T14:52:37;102536.75;;;14.84;100.00
24666;BME280;29726;53.532;-1.478;2023-02-12T14:55:29;102530.78;;;14.82;100.00
24666;BME280;29726;53.532;-1.478;2023-02-12T14:58:22;102530.31;;;14.84;100.00
24666;BME280;29726;53.532;-1.478;2023-02-12T15:01:07;102520.44;;;14.79;100.00
24666;BME280;29726;53.532;-1.478;2023-02-12T15:03:54;102517.28;;;14.77;100.00
24666;BME280;29726;53.532;-1.478;2023-02-12T15:06:49;102515.81;;;14.85;100.00
24666;BME280;29726;53.532;-1.478;2023-02-12T15:09:39;102504.91;;;14.75;100.00
24666;BME280;29726;53.532;-1.478;2023-02-12T15:12:38;102502.88;;;14.75;100.00
24666;BME280;29726;53.532;-1.478;2023-02-12T15:18:57;102518.63;;;14.85;100.00
24666;BME280;29726;53.532;-1.478;2023-02-12T15:21:42;102506.03;;;14.77;100.00
24666;BME280;29726;53.532;-1.478;2023-02-12T15:24:29;102508.28;;;14.82;100.00
24666;BME280;29726;53.532;-1.478;2023-02-12T15:27:14;102508.63;;;14.84;100.00
24666;BME280;29726;53.532;-1.478;2023-02-12T15:29:59;102517.06;;;14.84;100.00
24666;BME280;29726;53.532;-1.478;2023-02-12T15:32:44;102474.38;;;14.61;100.00
24666;BME280;29726;53.532;-1.478;2023-02-12T15:35:30;102502.56;;;14.86;100.00
24666;BME280;29726;53.532;-1.478;2023-02-12T15:38:21;102507.38;;;14.85;100.00
24666;BME280;29726;53.532;-1.478;2023-02-12T15:41:23;102508.97;;;14.86;100.00
24666;BME280;29726;53.532;-1.478;2023-02-12T15:44:28;102513.25;;;14.78;100.00
24666;BME280;29726;53.532;-1.478;2023-02-12T15:47:14;102522.56;;;14.75;100.00
24666;BME280;29726;53.532;-1.478;2023-02-12T15:49:59;102517.81;;;14.72;100.00
24666;BME280;29726;53.532;-1.478;2023-02-12T15:52:45;102512.56;;;14.74;100.00
24666;BME280;29726;53.532;-1.478;2023-02-12T15:55:35;102517.72;;;14.76;100.00
24666;BME280;29726;53.532;-1.478;2023-02-12T15:58:36;102521.09;;;14.71;100.00
24666;BME280;29726;53.532;-1.478;2023-02-12T16:01:32;102527.50;;;14.71;100.00
24666;BME280;29726;53.532;-1.478;2023-02-12T16:04:18;102528.63;;;14.74;100.00
24666;BME280;29726;53.532;-1.478;2023-02-12T16:07:03;102528.28;;;14.72;100.00
24666;BME280;29726;53.532;-1.478;2023-02-12T16:09:49;102527.72;;;14.64;100.00
24666;BME280;29726;53.532;-1.478;2023-02-12T16:12:34;102543.59;;;14.71;100.00
24666;BME280;29726;53.532;-1.478;2023-02-12T16:15:31;102544.34;;;14.71;100.00
24666;BME280;29726;53.532;-1.478;2023-02-12T16:18:23;102539.97;;;14.70;100.00
24666;BME280;29726;53.532;-1.478;2023-02-12T16:21:14;102541.66;;;14.68;100.00